sensor_id;sensor_type;location;lat;lon;timestamp;P1;durP1;ratioP1;P2;durP2;ratioP2
35442;SDS011;21561;55.654;37.592;2024-01-11T00:01:50;13.27;;;3.60;;
35442;SDS011;21561;55.654;37.592;2024-01-11T00:04:18;12.13;;;3.05;;
35442;SDS011;21561;55.654;37.592;2024-01-11T00:06:45;11.95;;;3.88;;
35442;SDS011;21561;55.654;37.592;2024-01-11T00:09:12;14.30;;;3.95;;
35442;SDS011;21561;55.654;37.592;2024-01-11T00:11:39;12.60;;;3.35;;
35442;SDS011;21561;55.654;37.592;2024-01-11T00:14:06;13.60;;;3.80;;
35442;SDS011;21561;55.654;37.592;2024-01-11T00:16:33;12.27;;;3.60;;
35442;SDS011;21561;55.654;37.592;2024-01-11T00:19:01;12.68;;;3.47;;
35442;SDS011;21561;55.654;37.592;2024-01-11T00:21:28;11.55;;;3.42;;
35442;SDS011;21561;55.654;37.592;2024-01-11T00:23:55;14.15;;;3.83;;
35442;SDS011;21561;55.654;37.592;2024-01-11T00:26:22;12.82;;;3.30;;
35442;SDS011;21561;55.654;37.592;2024-01-11T00:28:49;11.88;;;3.10;;
35442;SDS011;21561;55.654;37.592;2024-01-11T00:31:16;11.80;;;3.40;;
35442;SDS011;21561;55.654;37.592;2024-01-11T00:33:43;16.30;;;3.45;;
35442;SDS011;21561;55.654;37.592;2024-01-11T00:36:10;11.05;;;3.40;;
35442;SDS011;21561;55.654;37.592;2024-01-11T00:38:43;12.10;;;3.42;;
35442;SDS011;21561;55.654;37.592;2024-01-11T00:41:10;10.57;;;3.13;;
35442;SDS011;21561;55.654;37.592;2024-01-11T00:43:37;10.15;;;2.95;;
35442;SDS011;21561;55.654;37.592;2024-01-11T00:46:04;11.80;;;3.67;;
35442;SDS011;21561;55.654;37.592;2024-01-11T00:48:31;9.68;;;2.55;;
35442;SDS011;21561;55.654;37.592;2024-01-11T00:50:58;12.77;;;3.50;;
35442;SDS011;21561;55.654;37.592;2024-01-11T00:53:25;12.98;;;3.20;;
35442;SDS011;21561;55.654;37.592;2024-01-11T00:55:57;11.65;;;2.97;;
35442;SDS011;21561;55.654;37.592;2024-01-11T00:58:24;11.85;;;3.58;;
35442;SDS011;21561;55.654;37.592;2024-01-11T01:00:52;8.50;;;2.53;;
35442;SDS011;21561;55.654;37.592;2024-01-11T01:03:23;11.23;;;3.15;;
35442;SDS011;21561;55.654;37.592;2024-01-11T01:05:50;9.65;;;2.97;;
35442;SDS011;21561;55.654;37.592;2024-01-11T01:08:17;12.60;;;3.58;;
35442;SDS011;21561;55.654;37.592;2024-01-11T01:10:44;9.60;;;2.78;;
35442;SDS011;21561;55.654;37.592;2024-01-11T01:13:11;11.57;;;3.50;;
35442;SDS011;21561;55.654;37.592;2024-01-11T01:15:38;10.77;;;3.05;;
35442;SDS011;21561;55.654;37.592;2024-01-11T01:18:04;12.25;;;3.40;;
35442;SDS011;21561;55.654;37.592;2024-01-11T01:20:32;12.57;;;3.38;;
35442;SDS011;21561;55.654;37.592;2024-01-11T01:22:59;10.48;;;3.15;;
35442;SDS011;21561;55.654;37.592;2024-01-11T01:25:26;12.52;;;3.35;;
35442;SDS011;21561;55.654;37.592;2024-01-11T01:27:53;11.93;;;3.10;;
35442;SDS011;21561;55.654;37.592;2024-01-11T01:30:20;11.43;;;3.40;;
35442;SDS011;21561;55.654;37.592;2024-01-11T01:32:47;8.30;;;2.78;;
35442;SDS011;21561;55.654;37.592;2024-01-11T01:35:14;11.60;;;2.90;;
35442;SDS011;21561;55.654;37.592;2024-01-11T01:37:42;11.70;;;3.15;;
35442;SDS011;21561;55.654;37.592;2024-01-11T01:40:09;10.82;;;3.20;;
35442;SDS011;21561;55.654;37.592;2024-01-11T01:42:42;8.57;;;2.90;;
35442;SDS011;21561;55.654;37.592;2024-01-11T01:45:10;9.02;;;2.55;;
35442;SDS011;21561;55.654;37.592;2024-01-11T01:47:38;9.20;;;2.80;;
35442;SDS011;21561;55.654;37.592;2024-01-11T01:50:07;9.00;;;2.78;;
35442;SDS011;21561;55.654;37.592;2024-01-11T01:52:37;9.90;;;3.00;;
35442;SDS011;21561;55.654;37.592;2024-01-11T01:55:10;10.55;;;2.80;;
35442;SDS011;21561;55.654;37.592;2024-01-11T01:57:41;11.85;;;3.00;;
35442;SDS011;21561;55.654;37.592;2024-01-11T02:00:10;9.05;;;2.70;;
35442;SDS011;21561;55.654;37.592;2024-01-11T02:02:43;10.88;;;2.50;;
35442;SDS011;21561;55.654;37.592;2024-01-11T02:05:12;8.13;;;2.35;;
35442;SDS011;21561;55.654;37.592;2024-01-11T02:07:40;6.72;;;2.15;;
35442;SDS011;21561;55.654;37.592;2024-01-11T02:10:08;7.35;;;2.33;;
35442;SDS011;21561;55.654;37.592;2024-01-11T02:12:35;6.60;;;2.15;;
35442;SDS011;21561;55.654;37.592;2024-01-11T02:15:05;6.95;;;2.25;;
35442;SDS011;21561;55.654;37.592;2024-01-11T02:17:37;6.97;;;2.10;;
35442;SDS011;21561;55.654;37.592;2024-01-11T02:20:07;5.30;;;1.95;;
35442;SDS011;21561;55.654;37.592;2024-01-11T02:22:35;6.50;;;2.05;;
35442;SDS011;21561;55.654;37.592;2024-01-11T02:25:04;6.57;;;2.15;;
35442;SDS011;21561;55.654;37.592;2024-01-11T02:27:44;8.20;;;2.25;;
35442;SDS011;21561;55.654;37.592;2024-01-11T02:30:12;8.65;;;2.30;;
35442;SDS011;21561;55.654;37.592;2024-01-11T02:32:39;8.70;;;2.38;;
35442;SDS011;21561;55.654;37.592;2024-01-11T02:35:07;7.32;;;2.20;;
35442;SDS011;21561;55.654;37.592;2024-01-11T02:37:36;5.32;;;1.77;;
35442;SDS011;21561;55.654;37.592;2024-01-11T02:40:06;5.55;;;2.05;;
35442;SDS011;21561;55.654;37.592;2024-01-11T02:42:35;7.00;;;2.20;;
35442;SDS011;21561;55.654;37.592;2024-01-11T02:45:02;6.18;;;1.70;;
35442;SDS011;21561;55.654;37.592;2024-01-11T02:47:31;6.88;;;2.00;;
35442;SDS011;21561;55.654;37.592;2024-01-11T02:49:59;7.25;;;2.22;;
35442;SDS011;21561;55.654;37.592;2024-01-11T02:52:26;6.72;;;1.98;;
35442;SDS011;21561;55.654;37.592;2024-01-11T02:54:53;7.15;;;2.00;;
35442;SDS011;21561;55.654;37.592;2024-01-11T02:57:19;6.25;;;2.10;;
35442;SDS011;21561;55.654;37.592;2024-01-11T02:59:46;4.97;;;1.70;;
35442;SDS011;21561;55.654;37.592;2024-01-11T03:02:13;8.07;;;2.20;;
35442;SDS011;21561;55.654;37.592;2024-01-11T03:04:40;4.53;;;2.00;;
35442;SDS011;21561;55.654;37.592;2024-01-11T03:07:07;6.85;;;1.77;;
35442;SDS011;21561;55.654;37.592;2024-01-11T03:09:34;5.22;;;1.52;;
35442;SDS011;21561;55.654;37.592;2024-01-11T03:12:01;7.07;;;1.90;;
35442;SDS011;21561;55.654;37.592;2024-01-11T03:14:28;5.45;;;1.63;;
35442;SDS011;21561;55.654;37.592;2024-01-11T03:16:55;7.43;;;2.70;;
35442;SDS011;21561;55.654;37.592;2024-01-11T03:19:22;3.63;;;1.67;;
35442;SDS011;21561;55.654;37.592;2024-01-11T03:21:49;6.13;;;1.77;;
35442;SDS011;21561;55.654;37.592;2024-01-11T03:24:16;3.95;;;1.70;;
35442;SDS011;21561;55.654;37.592;2024-01-11T03:26:43;3.67;;;1.33;;
35442;SDS011;21561;55.654;37.592;2024-01-11T03:29:10;4.47;;;1.40;;
35442;SDS011;21561;55.654;37.592;2024-01-11T03:31:37;4.38;;;1.50;;
35442;SDS011;21561;55.654;37.592;2024-01-11T03:34:08;4.18;;;1.65;;
35442;SDS011;21561;55.654;37.592;2024-01-11T03:36:35;8.32;;;1.80;;
35442;SDS011;21561;55.654;37.592;2024-01-11T03:39:02;2.90;;;1.40;;
35442;SDS011;21561;55.654;37.592;2024-01-11T03:41:29;5.45;;;1.83;;
35442;SDS011;21561;55.654;37.592;2024-01-11T03:43:56;3.90;;;1.30;;
35442;SDS011;21561;55.654;37.592;2024-01-11T03:46:23;3.38;;;1.27;;
35442;SDS011;21561;55.654;37.592;2024-01-11T03:48:50;4.85;;;1.38;;
35442;SDS011;21561;55.654;37.592;2024-01-11T03:51:17;2.03;;;1.10;;
35442;SDS011;21561;55.654;37.592;2024-01-11T03:53:44;1.90;;;1.02;;
35442;SDS011;21561;55.654;37.592;2024-01-11T03:56:11;3.47;;;0.93;;
35442;SDS011;21561;55.654;37.592;2024-01-11T03:58:38;1.90;;;0.93;;
35442;SDS011;21561;55.654;37.592;2024-01-11T04:01:07;1.63;;;0.80;;
35442;SDS011;21561;55.654;37.592;2024-01-11T04:03:37;3.00;;;1.00;;
35442;SDS011;21561;55.654;37.592;2024-01-11T04:06:04;2.25;;;1.10;;
35442;SDS011;21561;55.654;37.592;2024-01-11T04:08:31;2.90;;;1.20;;
35442;SDS011;21561;55.654;37.592;2024-01-11T04:11:01;2.50;;;1.20;;
35442;SDS011;21561;55.654;37.592;2024-01-11T04:13:31;2.28;;;0.68;;
35442;SDS011;21561;55.654;37.592;2024-01-11T04:15:57;1.85;;;0.90;;
35442;SDS011;21561;55.654;37.592;2024-01-11T04:18:24;3.70;;;1.02;;
35442;SDS011;21561;55.654;37.592;2024-01-11T04:20:51;2.40;;;0.95;;
35442;SDS011;21561;55.654;37.592;2024-01-11T04:23:18;2.28;;;1.00;;
35442;SDS011;21561;55.654;37.592;2024-01-11T04:25:45;1.40;;;0.77;;
35442;SDS011;21561;55.654;37.592;2024-01-11T04:28:13;2.67;;;0.85;;
35442;SDS011;21561;55.654;37.592;2024-01-11T04:30:40;2.33;;;0.90;;
35442;SDS011;21561;55.654;37.592;2024-01-11T04:33:07;1.83;;;0.90;;
35442;SDS011;21561;55.654;37.592;2024-01-11T04:35:34;1.27;;;0.70;;
35442;SDS011;21561;55.654;37.592;2024-01-11T04:38:02;3.35;;;0.50;;
35442;SDS011;21561;55.654;37.592;2024-01-11T04:40:29;1.13;;;0.60;;
35442;SDS011;21561;55.654;37.592;2024-01-11T04:42:56;3.65;;;1.08;;
35442;SDS011;21561;55.654;37.592;2024-01-11T04:45:23;2.08;;;0.90;;
35442;SDS011;21561;55.654;37.592;2024-01-11T04:47:50;1.80;;;0.80;;
35442;SDS011;21561;55.654;37.592;2024-01-11T04:50:21;4.85;;;1.52;;
35442;SDS011;21561;55.654;37.592;2024-01-11T04:52:48;3.20;;;0.93;;
35442;SDS011;21561;55.654;37.592;2024-01-11T04:55:15;2.08;;;0.90;;
35442;SDS011;21561;55.654;37.592;2024-01-11T04:57:43;1.50;;;0.47;;
35442;SDS011;21561;55.654;37.592;2024-01-11T05:00:10;1.58;;;0.98;;
35442;SDS011;21561;55.654;37.592;2024-01-11T05:02:38;0.88;;;0.60;;
35442;SDS011;21561;55.654;37.592;2024-01-11T05:05:05;2.70;;;0.80;;
35442;SDS011;21561;55.654;37.592;2024-01-11T05:10:47;3.53;;;1.05;;
35442;SDS011;21561;55.654;37.592;2024-01-11T05:13:14;1.15;;;0.75;;
35442;SDS011;21561;55.654;37.592;2024-01-11T05:15:41;2.42;;;1.15;;
35442;SDS011;21561;55.654;37.592;2024-01-11T05:18:08;2.10;;;1.02;;
35442;SDS011;21561;55.654;37.592;2024-01-11T05:20:35;4.07;;;1.25;;
35442;SDS011;21561;55.654;37.592;2024-01-11T05:23:02;1.10;;;0.70;;
35442;SDS011;21561;55.654;37.592;2024-01-11T05:25:30;1.73;;;0.80;;
35442;SDS011;21561;55.654;37.592;2024-01-11T05:28:01;1.30;;;0.82;;
35442;SDS011;21561;55.654;37.592;2024-01-11T05:30:30;2.97;;;1.17;;
35442;SDS011;21561;55.654;37.592;2024-01-11T05:32:57;2.17;;;0.65;;
35442;SDS011;21561;55.654;37.592;2024-01-11T05:35:24;1.98;;;1.05;;
35442;SDS011;21561;55.654;37.592;2024-01-11T05:37:54;2.05;;;1.02;;
35442;SDS011;21561;55.654;37.592;2024-01-11T05:40:24;3.20;;;1.20;;
35442;SDS011;21561;55.654;37.592;2024-01-11T05:42:51;3.67;;;1.00;;
35442;SDS011;21561;55.654;37.592;2024-01-11T05:45:18;1.63;;;0.80;;
35442;SDS011;21561;55.654;37.592;2024-01-11T05:47:52;2.80;;;1.00;;
35442;SDS011;21561;55.654;37.592;2024-01-11T05:50:19;2.22;;;0.80;;
35442;SDS011;21561;55.654;37.592;2024-01-11T05:52:46;1.48;;;0.80;;
35442;SDS011;21561;55.654;37.592;2024-01-11T05:55:13;2.63;;;0.90;;
35442;SDS011;21561;55.654;37.592;2024-01-11T05:57:40;3.58;;;0.70;;
35442;SDS011;21561;55.654;37.592;2024-01-11T06:00:07;3.00;;;0.90;;
35442;SDS011;21561;55.654;37.592;2024-01-11T06:02:35;2.08;;;0.90;;
35442;SDS011;21561;55.654;37.592;2024-01-11T06:05:03;2.40;;;0.90;;
35442;SDS011;21561;55.654;37.592;2024-01-11T06:07:30;5.18;;;1.02;;
35442;SDS011;21561;55.654;37.592;2024-01-11T06:09:57;1.75;;;0.90;;
35442;SDS011;21561;55.654;37.592;2024-01-11T06:12:24;2.55;;;0.80;;
35442;SDS011;21561;55.654;37.592;2024-01-11T06:14:51;2.03;;;0.98;;
35442;SDS011;21561;55.654;37.592;2024-01-11T06:17:17;2.05;;;0.75;;
35442;SDS011;21561;55.654;37.592;2024-01-11T06:19:45;1.88;;;0.80;;
35442;SDS011;21561;55.654;37.592;2024-01-11T06:22:12;1.70;;;0.93;;
35442;SDS011;21561;55.654;37.592;2024-01-11T06:24:38;2.38;;;1.10;;
35442;SDS011;21561;55.654;37.592;2024-01-11T06:27:05;4.07;;;1.10;;
35442;SDS011;21561;55.654;37.592;2024-01-11T06:29:32;4.60;;;1.15;;
35442;SDS011;21561;55.654;37.592;2024-01-11T06:31:59;2.75;;;1.00;;
35442;SDS011;21561;55.654;37.592;2024-01-11T06:34:26;1.75;;;1.00;;
35442;SDS011;21561;55.654;37.592;2024-01-11T06:36:54;3.40;;;0.95;;
35442;SDS011;21561;55.654;37.592;2024-01-11T06:39:21;4.85;;;1.23;;
35442;SDS011;21561;55.654;37.592;2024-01-11T06:41:49;3.35;;;1.20;;
35442;SDS011;21561;55.654;37.592;2024-01-11T06:44:15;1.35;;;0.90;;
35442;SDS011;21561;55.654;37.592;2024-01-11T06:46:42;2.55;;;0.82;;
35442;SDS011;21561;55.654;37.592;2024-01-11T06:49:10;7.82;;;0.93;;
35442;SDS011;21561;55.654;37.592;2024-01-11T06:51:38;2.88;;;0.73;;
35442;SDS011;21561;55.654;37.592;2024-01-11T06:54:06;1.65;;;1.00;;
35442;SDS011;21561;55.654;37.592;2024-01-11T06:56:33;3.38;;;1.08;;
35442;SDS011;21561;55.654;37.592;2024-01-11T06:59:01;2.03;;;1.00;;
35442;SDS011;21561;55.654;37.592;2024-01-11T07:01:27;4.32;;;1.13;;
35442;SDS011;21561;55.654;37.592;2024-01-11T07:03:55;4.05;;;1.13;;
35442;SDS011;21561;55.654;37.592;2024-01-11T07:06:22;2.42;;;0.90;;
35442;SDS011;21561;55.654;37.592;2024-01-11T07:08:49;3.88;;;1.02;;
35442;SDS011;21561;55.654;37.592;2024-01-11T07:11:16;2.78;;;0.98;;
35442;SDS011;21561;55.654;37.592;2024-01-11T07:13:43;2.47;;;0.85;;
35442;SDS011;21561;55.654;37.592;2024-01-11T07:16:10;1.77;;;0.85;;
35442;SDS011;21561;55.654;37.592;2024-01-11T07:18:41;2.57;;;0.90;;
35442;SDS011;21561;55.654;37.592;2024-01-11T07:21:09;1.98;;;0.95;;
35442;SDS011;21561;55.654;37.592;2024-01-11T07:23:35;4.65;;;1.25;;
35442;SDS011;21561;55.654;37.592;2024-01-11T07:26:03;7.32;;;1.50;;
35442;SDS011;21561;55.654;37.592;2024-01-11T07:28:30;2.35;;;0.85;;
35442;SDS011;21561;55.654;37.592;2024-01-11T07:31:00;1.88;;;0.90;;
35442;SDS011;21561;55.654;37.592;2024-01-11T07:33:27;1.83;;;0.80;;
35442;SDS011;21561;55.654;37.592;2024-01-11T07:35:55;5.30;;;1.10;;
35442;SDS011;21561;55.654;37.592;2024-01-11T07:38:22;6.07;;;1.10;;
35442;SDS011;21561;55.654;37.592;2024-01-11T07:40:49;3.15;;;0.95;;
35442;SDS011;21561;55.654;37.592;2024-01-11T07:43:16;1.50;;;0.75;;
35442;SDS011;21561;55.654;37.592;2024-01-11T07:45:43;1.80;;;0.60;;
35442;SDS011;21561;55.654;37.592;2024-01-11T07:48:10;2.35;;;0.73;;
35442;SDS011;21561;55.654;37.592;2024-01-11T07:50:37;7.60;;;1.13;;
35442;SDS011;21561;55.654;37.592;2024-01-11T07:53:04;3.00;;;0.77;;
35442;SDS011;21561;55.654;37.592;2024-01-11T07:55:31;0.50;;;0.38;;
35442;SDS011;21561;55.654;37.592;2024-01-11T07:57:58;1.98;;;0.80;;
35442;SDS011;21561;55.654;37.592;2024-01-11T08:00:25;1.27;;;0.60;;
35442;SDS011;21561;55.654;37.592;2024-01-11T08:02:52;1.75;;;0.50;;
35442;SDS011;21561;55.654;37.592;2024-01-11T08:05:21;2.42;;;0.70;;
35442;SDS011;21561;55.654;37.592;2024-01-11T08:07:48;2.30;;;0.75;;
35442;SDS011;21561;55.654;37.592;2024-01-11T08:10:15;2.00;;;0.60;;
35442;SDS011;21561;55.654;37.592;2024-01-11T08:12:42;3.28;;;0.52;;
35442;SDS011;21561;55.654;37.592;2024-01-11T08:15:09;2.55;;;0.52;;
35442;SDS011;21561;55.654;37.592;2024-01-11T08:17:44;2.20;;;0.85;;
35442;SDS011;21561;55.654;37.592;2024-01-11T08:20:14;4.10;;;1.02;;
35442;SDS011;21561;55.654;37.592;2024-01-11T08:22:42;2.83;;;1.10;;
35442;SDS011;21561;55.654;37.592;2024-01-11T08:25:09;4.07;;;0.80;;
35442;SDS011;21561;55.654;37.592;2024-01-11T08:27:36;1.48;;;0.77;;
35442;SDS011;21561;55.654;37.592;2024-01-11T08:30:03;7.32;;;0.73;;
35442;SDS011;21561;55.654;37.592;2024-01-11T08:32:31;4.47;;;1.05;;
35442;SDS011;21561;55.654;37.592;2024-01-11T08:35:05;1.90;;;0.63;;
35442;SDS011;21561;55.654;37.592;2024-01-11T08:37:33;4.63;;;0.98;;
35442;SDS011;21561;55.654;37.592;2024-01-11T08:40:00;0.65;;;0.45;;
35442;SDS011;21561;55.654;37.592;2024-01-11T08:42:28;3.85;;;0.90;;
35442;SDS011;21561;55.654;37.592;2024-01-11T08:44:55;5.05;;;0.88;;
35442;SDS011;21561;55.654;37.592;2024-01-11T08:47:24;2.72;;;1.15;;
35442;SDS011;21561;55.654;37.592;2024-01-11T08:49:51;3.75;;;0.90;;
35442;SDS011;21561;55.654;37.592;2024-01-11T08:52:18;1.75;;;0.50;;
35442;SDS011;21561;55.654;37.592;2024-01-11T08:54:45;3.17;;;0.88;;
35442;SDS011;21561;55.654;37.592;2024-01-11T08:57:12;2.38;;;0.70;;
35442;SDS011;21561;55.654;37.592;2024-01-11T08:59:38;3.35;;;0.85;;
35442;SDS011;21561;55.654;37.592;2024-01-11T09:02:05;1.98;;;0.77;;
35442;SDS011;21561;55.654;37.592;2024-01-11T09:04:42;4.30;;;1.00;;
35442;SDS011;21561;55.654;37.592;2024-01-11T09:07:09;2.08;;;0.93;;
35442;SDS011;21561;55.654;37.592;2024-01-11T09:09:36;2.55;;;1.00;;
35442;SDS011;21561;55.654;37.592;2024-01-11T09:12:17;1.58;;;0.47;;
35442;SDS011;21561;55.654;37.592;2024-01-11T09:14:44;4.80;;;0.45;;
35442;SDS011;21561;55.654;37.592;2024-01-11T09:17:11;4.35;;;1.13;;
35442;SDS011;21561;55.654;37.592;2024-01-11T09:19:38;0.95;;;0.30;;
35442;SDS011;21561;55.654;37.592;2024-01-11T09:22:07;0.98;;;0.40;;
35442;SDS011;21561;55.654;37.592;2024-01-11T09:24:37;1.48;;;0.55;;
35442;SDS011;21561;55.654;37.592;2024-01-11T09:27:06;3.22;;;0.73;;
35442;SDS011;21561;55.654;37.592;2024-01-11T09:29:33;1.90;;;0.80;;
35442;SDS011;21561;55.654;37.592;2024-01-11T09:32:00;1.65;;;0.57;;
35442;SDS011;21561;55.654;37.592;2024-01-11T09:34:27;1.70;;;0.30;;
35442;SDS011;21561;55.654;37.592;2024-01-11T09:36:54;1.52;;;0.40;;
35442;SDS011;21561;55.654;37.592;2024-01-11T09:39:25;2.90;;;0.52;;
35442;SDS011;21561;55.654;37.592;2024-01-11T09:41:55;2.05;;;0.77;;
35442;SDS011;21561;55.654;37.592;2024-01-11T09:44:25;2.40;;;0.88;;
35442;SDS011;21561;55.654;37.592;2024-01-11T09:46:53;2.92;;;0.85;;
35442;SDS011;21561;55.654;37.592;2024-01-11T09:49:21;3.33;;;1.00;;
35442;SDS011;21561;55.654;37.592;2024-01-11T09:51:49;6.60;;;1.27;;
35442;SDS011;21561;55.654;37.592;2024-01-11T09:54:17;2.90;;;1.02;;
35442;SDS011;21561;55.654;37.592;2024-01-11T09:56:47;1.50;;;0.80;;
35442;SDS011;21561;55.654;37.592;2024-01-11T09:59:20;1.92;;;0.73;;
35442;SDS011;21561;55.654;37.592;2024-01-11T10:01:51;3.20;;;0.95;;
35442;SDS011;21561;55.654;37.592;2024-01-11T10:04:19;3.03;;;0.77;;
35442;SDS011;21561;55.654;37.592;2024-01-11T10:06:46;2.25;;;1.10;;
35442;SDS011;21561;55.654;37.592;2024-01-11T10:09:14;1.77;;;1.02;;
35442;SDS011;21561;55.654;37.592;2024-01-11T10:11:43;1.75;;;0.80;;
35442;SDS011;21561;55.654;37.592;2024-01-11T10:14:12;1.88;;;0.85;;
35442;SDS011;21561;55.654;37.592;2024-01-11T10:16:41;3.80;;;0.85;;
35442;SDS011;21561;55.654;37.592;2024-01-11T10:19:09;3.25;;;1.20;;
35442;SDS011;21561;55.654;37.592;2024-01-11T10:21:37;1.77;;;0.93;;
35442;SDS011;21561;55.654;37.592;2024-01-11T10:24:08;4.70;;;1.10;;
35442;SDS011;21561;55.654;37.592;2024-01-11T10:26:35;2.10;;;0.80;;
35442;SDS011;21561;55.654;37.592;2024-01-11T10:29:02;1.80;;;0.90;;
35442;SDS011;21561;55.654;37.592;2024-01-11T10:31:30;4.70;;;1.20;;
35442;SDS011;21561;55.654;37.592;2024-01-11T10:33:57;2.47;;;1.02;;
35442;SDS011;21561;55.654;37.592;2024-01-11T10:36:24;2.83;;;1.00;;
35442;SDS011;21561;55.654;37.592;2024-01-11T10:38:52;5.55;;;0.90;;
35442;SDS011;21561;55.654;37.592;2024-01-11T10:41:20;4.47;;;1.38;;
35442;SDS011;21561;55.654;37.592;2024-01-11T10:43:48;2.60;;;1.10;;
35442;SDS011;21561;55.654;37.592;2024-01-11T10:46:16;3.35;;;1.08;;
35442;SDS011;21561;55.654;37.592;2024-01-11T10:48:48;4.28;;;1.30;;
35442;SDS011;21561;55.654;37.592;2024-01-11T10:51:22;2.35;;;1.13;;
35442;SDS011;21561;55.654;37.592;2024-01-11T10:53:52;3.67;;;1.50;;
35442;SDS011;21561;55.654;37.592;2024-01-11T10:56:20;2.75;;;0.95;;
35442;SDS011;21561;55.654;37.592;2024-01-11T10:58:48;3.85;;;1.45;;
35442;SDS011;21561;55.654;37.592;2024-01-11T11:01:16;3.30;;;1.17;;
35442;SDS011;21561;55.654;37.592;2024-01-11T11:03:45;3.22;;;1.10;;
35442;SDS011;21561;55.654;37.592;2024-01-11T11:06:12;4.25;;;1.10;;
35442;SDS011;21561;55.654;37.592;2024-01-11T11:08:40;8.68;;;1.20;;
35442;SDS011;21561;55.654;37.592;2024-01-11T11:11:08;2.10;;;0.80;;
35442;SDS011;21561;55.654;37.592;2024-01-11T11:13:36;2.28;;;1.13;;
35442;SDS011;21561;55.654;37.592;2024-01-11T11:16:05;1.25;;;0.55;;
35442;SDS011;21561;55.654;37.592;2024-01-11T11:18:32;2.53;;;0.88;;
35442;SDS011;21561;55.654;37.592;2024-01-11T11:21:06;6.50;;;1.10;;
35442;SDS011;21561;55.654;37.592;2024-01-11T11:23:39;3.63;;;1.10;;
35442;SDS011;21561;55.654;37.592;2024-01-11T11:26:06;4.53;;;0.93;;
35442;SDS011;21561;55.654;37.592;2024-01-11T11:28:40;4.05;;;1.35;;
35442;SDS011;21561;55.654;37.592;2024-01-11T11:31:08;2.65;;;0.60;;
35442;SDS011;21561;55.654;37.592;2024-01-11T11:33:37;7.13;;;1.75;;
35442;SDS011;21561;55.654;37.592;2024-01-11T11:36:05;5.22;;;1.02;;
35442;SDS011;21561;55.654;37.592;2024-01-11T11:38:32;5.63;;;1.30;;
35442;SDS011;21561;55.654;37.592;2024-01-11T11:41:02;3.03;;;1.00;;
35442;SDS011;21561;55.654;37.592;2024-01-11T11:43:29;15.75;;;1.90;;
35442;SDS011;21561;55.654;37.592;2024-01-11T11:45:58;3.33;;;0.68;;
35442;SDS011;21561;55.654;37.592;2024-01-11T11:53:38;1.92;;;1.00;;
35442;SDS011;21561;55.654;37.592;2024-01-11T11:56:07;7.13;;;1.20;;
35442;SDS011;21561;55.654;37.592;2024-01-11T11:58:39;4.75;;;1.30;;
35442;SDS011;21561;55.654;37.592;2024-01-11T12:01:06;4.38;;;1.10;;
35442;SDS011;21561;55.654;37.592;2024-01-11T12:03:34;6.03;;;1.27;;
35442;SDS011;21561;55.654;37.592;2024-01-11T12:06:05;7.47;;;1.17;;
35442;SDS011;21561;55.654;37.592;2024-01-11T12:08:35;6.57;;;1.23;;
35442;SDS011;21561;55.654;37.592;2024-01-11T12:11:02;5.30;;;1.40;;
35442;SDS011;21561;55.654;37.592;2024-01-11T12:13:30;3.70;;;1.55;;
35442;SDS011;21561;55.654;37.592;2024-01-11T12:15:59;4.70;;;1.30;;
35442;SDS011;21561;55.654;37.592;2024-01-11T12:18:26;3.17;;;1.13;;
35442;SDS011;21561;55.654;37.592;2024-01-11T12:20:53;3.97;;;1.50;;
35442;SDS011;21561;55.654;37.592;2024-01-11T12:23:20;2.58;;;0.80;;
35442;SDS011;21561;55.654;37.592;2024-01-11T12:25:47;3.42;;;1.13;;
35442;SDS011;21561;55.654;37.592;2024-01-11T12:28:14;5.72;;;1.38;;
35442;SDS011;21561;55.654;37.592;2024-01-11T12:30:44;7.43;;;1.40;;
35442;SDS011;21561;55.654;37.592;2024-01-11T12:33:12;4.50;;;1.15;;
35442;SDS011;21561;55.654;37.592;2024-01-11T12:35:40;2.88;;;1.00;;
35442;SDS011;21561;55.654;37.592;2024-01-11T12:38:07;2.15;;;1.05;;
35442;SDS011;21561;55.654;37.592;2024-01-11T12:40:36;6.15;;;1.83;;
35442;SDS011;21561;55.654;37.592;2024-01-11T12:43:07;6.47;;;1.92;;
35442;SDS011;21561;55.654;37.592;2024-01-11T12:45:34;11.73;;;1.88;;
35442;SDS011;21561;55.654;37.592;2024-01-11T12:48:02;6.28;;;1.58;;
35442;SDS011;21561;55.654;37.592;2024-01-11T12:50:33;11.07;;;2.27;;
35442;SDS011;21561;55.654;37.592;2024-01-11T12:53:13;3.92;;;1.30;;
35442;SDS011;21561;55.654;37.592;2024-01-11T12:55:47;4.93;;;1.27;;
35442;SDS011;21561;55.654;37.592;2024-01-11T12:58:24;3.22;;;1.30;;
35442;SDS011;21561;55.654;37.592;2024-01-11T13:00:53;3.15;;;1.30;;
35442;SDS011;21561;55.654;37.592;2024-01-11T13:03:20;3.50;;;1.10;;
35442;SDS011;21561;55.654;37.592;2024-01-11T13:05:48;2.78;;;1.20;;
35442;SDS011;21561;55.654;37.592;2024-01-11T13:08:16;5.38;;;1.65;;
35442;SDS011;21561;55.654;37.592;2024-01-11T13:10:46;3.43;;;1.33;;
35442;SDS011;21561;55.654;37.592;2024-01-11T13:13:15;2.22;;;0.75;;
35442;SDS011;21561;55.654;37.592;2024-01-11T13:15:42;5.68;;;1.52;;
35442;SDS011;21561;55.654;37.592;2024-01-11T13:18:10;5.60;;;1.08;;
35442;SDS011;21561;55.654;37.592;2024-01-11T13:20:37;6.10;;;1.60;;
35442;SDS011;21561;55.654;37.592;2024-01-11T13:23:11;2.17;;;0.70;;
35442;SDS011;21561;55.654;37.592;2024-01-11T13:25:43;3.85;;;1.13;;
35442;SDS011;21561;55.654;37.592;2024-01-11T13:28:11;5.45;;;1.40;;
35442;SDS011;21561;55.654;37.592;2024-01-11T13:30:40;4.72;;;1.38;;
35442;SDS011;21561;55.654;37.592;2024-01-11T13:33:08;5.72;;;1.70;;
35442;SDS011;21561;55.654;37.592;2024-01-11T13:35:38;5.80;;;1.40;;
35442;SDS011;21561;55.654;37.592;2024-01-11T13:38:06;5.65;;;1.60;;
35442;SDS011;21561;55.654;37.592;2024-01-11T13:40:33;3.40;;;1.20;;
35442;SDS011;21561;55.654;37.592;2024-01-11T13:43:01;3.25;;;1.38;;
35442;SDS011;21561;55.654;37.592;2024-01-11T13:45:29;3.17;;;1.17;;
35442;SDS011;21561;55.654;37.592;2024-01-11T13:47:57;4.15;;;1.30;;
35442;SDS011;21561;55.654;37.592;2024-01-11T13:50:25;6.60;;;1.58;;
35442;SDS011;21561;55.654;37.592;2024-01-11T13:52:52;4.47;;;1.13;;
35442;SDS011;21561;55.654;37.592;2024-01-11T13:55:20;5.72;;;2.05;;
35442;SDS011;21561;55.654;37.592;2024-01-11T13:57:51;5.82;;;0.95;;
35442;SDS011;21561;55.654;37.592;2024-01-11T14:02:47;4.47;;;1.52;;
35442;SDS011;21561;55.654;37.592;2024-01-11T14:05:15;11.23;;;1.92;;
35442;SDS011;21561;55.654;37.592;2024-01-11T14:07:45;7.05;;;1.48;;
35442;SDS011;21561;55.654;37.592;2024-01-11T14:10:13;2.70;;;1.13;;
35442;SDS011;21561;55.654;37.592;2024-01-11T14:12:41;5.18;;;1.20;;
35442;SDS011;21561;55.654;37.592;2024-01-11T14:15:09;9.68;;;1.70;;
35442;SDS011;21561;55.654;37.592;2024-01-11T14:17:40;7.20;;;1.77;;
35442;SDS011;21561;55.654;37.592;2024-01-11T14:20:08;6.55;;;1.60;;
35442;SDS011;21561;55.654;37.592;2024-01-11T14:22:41;6.72;;;1.50;;
35442;SDS011;21561;55.654;37.592;2024-01-11T14:25:13;5.45;;;1.60;;
35442;SDS011;21561;55.654;37.592;2024-01-11T14:27:40;4.35;;;1.60;;
35442;SDS011;21561;55.654;37.592;2024-01-11T14:30:08;3.75;;;1.20;;
35442;SDS011;21561;55.654;37.592;2024-01-11T14:32:36;4.43;;;1.77;;
35442;SDS011;21561;55.654;37.592;2024-01-11T14:35:05;6.43;;;1.45;;
35442;SDS011;21561;55.654;37.592;2024-01-11T14:37:35;4.70;;;1.60;;
35442;SDS011;21561;55.654;37.592;2024-01-11T14:40:05;7.82;;;1.83;;
35442;SDS011;21561;55.654;37.592;2024-01-11T14:42:32;4.90;;;1.27;;
35442;SDS011;21561;55.654;37.592;2024-01-11T14:45:00;3.85;;;1.20;;
35442;SDS011;21561;55.654;37.592;2024-01-11T14:47:29;5.00;;;1.80;;
35442;SDS011;21561;55.654;37.592;2024-01-11T14:49:58;6.72;;;1.73;;